< < Back
Terminal Aerodrome Forecast


Current Version              Previous Versions:   1  2  3  4  5  6  7  8  9  

Terminal Aerodrome Forecast

143
FTUS42 KJAX 232300
TAFGNV
TAF
KGNV 232327Z 2400/2424 00000KT P6SM FEW250
     FM241400 01004KT P6SM FEW025 SCT250
     FM241800 04007KT P6SM SCT035 BKN200
     FM242200 05004KT P6SM FEW040 SCT200=

Latest METAR

586
SAUS70 KWBC 241000
MTRGNV
METAR KGNV 240953Z AUTO 00000KT 10SM CLR 08/08 A3001 RMK AO2 SLP160
T00830078


USA.gov is the U.S. government's official web portal to all federal, state and local government web resources and services.